Terminal Aerodrome Forecast
Issued by NWS Cleveland, OH

Home | Current Version | Previous Version | Graphics & Text | Print | Product List | Glossary On
Versions: 1 2 3 4 5 6 7 8 9 10 11 12 13 14 15 16 17 18 19 20 21
000
FTUS41 KCLE 130300 AAA
TAFMFD
TAF AMD
KMFD 130342Z 1304/1324 VRB03KT P6SM OVC035
     FM130800 25005KT 6SM BR OVC030
     FM131000 27010KT 5SM BR VCSH BKN022 OVC030
     FM131600 32008KT P6SM BKN035=

USA.gov is the U.S. government's official web portal to all federal, state and local government web resources and services.